createdAt,value
2017-04-16T00:01:08.843Z,0
2017-04-16T00:02:22.070Z,0
2017-04-16T00:03:35.333Z,0
2017-04-16T00:04:48.631Z,0
2017-04-16T00:06:01.402Z,0
2017-04-16T00:07:14.635Z,0
2017-04-16T00:08:27.851Z,0
2017-04-16T00:09:41.101Z,0
2017-04-16T00:10:54.323Z,0
2017-04-16T00:12:07.545Z,0
2017-04-16T00:13:20.278Z,0
2017-04-16T00:14:33.488Z,0
2017-04-16T00:15:46.207Z,0
2017-04-16T00:16:59.415Z,0
2017-04-16T00:18:12.647Z,0
2017-04-16T00:19:25.383Z,0
2017-04-16T00:20:38.628Z,0
2017-04-16T00:21:51.844Z,0
2017-04-16T00:23:04.564Z,0
2017-04-16T00:24:17.768Z,0
2017-04-16T00:25:31.001Z,0
2017-04-16T00:26:44.233Z,0
2017-04-16T00:27:57.435Z,0
2017-04-16T00:29:10.703Z,0
2017-04-16T00:30:23.893Z,0
2017-04-16T00:31:37.152Z,0
2017-04-16T00:32:50.416Z,0
2017-04-16T00:34:03.700Z,0
2017-04-16T00:35:16.931Z,0
2017-04-16T00:36:29.639Z,0
2017-04-16T00:37:42.322Z,0
2017-04-16T00:38:55.578Z,0
2017-04-16T00:40:08.828Z,0
2017-04-16T00:41:22.060Z,0
2017-04-16T00:42:35.327Z,0
2017-04-16T00:43:48.572Z,0
2017-04-16T00:45:01.793Z,0
2017-04-16T00:46:15.027Z,0
2017-04-16T00:47:28.473Z,0
2017-04-16T00:48:41.842Z,0
2017-04-16T00:49:55.056Z,0
2017-04-16T00:51:08.313Z,0
2017-04-16T00:52:21.553Z,0
2017-04-16T00:53:34.794Z,0
2017-04-16T00:54:48.073Z,0
2017-04-16T00:56:01.876Z,0
2017-04-16T00:57:15.227Z,0
2017-04-16T00:58:28.473Z,0
2017-04-16T00:59:41.704Z,0
2017-04-16T01:00:54.647Z,0
2017-04-16T01:02:07.908Z,0
2017-04-16T01:03:20.623Z,0
2017-04-16T01:04:33.837Z,0
2017-04-16T01:05:47.074Z,0
2017-04-16T01:07:00.355Z,0
2017-04-16T01:08:13.606Z,0
2017-04-16T01:09:26.333Z,0
2017-04-16T01:10:39.576Z,0
2017-04-16T01:11:52.814Z,0
2017-04-16T01:13:06.055Z,0
2017-04-16T01:14:19.298Z,0
2017-04-16T01:15:32.729Z,0
2017-04-16T01:16:45.426Z,0
2017-04-16T01:17:58.882Z,0
2017-04-16T01:19:12.104Z,0
2017-04-16T01:20:25.332Z,0
2017-04-16T01:21:38.032Z,0
2017-04-16T01:22:51.298Z,0
2017-04-16T01:24:04.569Z,0
2017-04-16T01:25:17.791Z,0
2017-04-16T01:26:30.552Z,0
2017-04-16T01:27:43.788Z,0
2017-04-16T01:28:57.022Z,0
2017-04-16T01:30:10.259Z,0
2017-04-16T01:31:23.486Z,0
2017-04-16T01:32:36.769Z,0
2017-04-16T01:33:50.016Z,0
2017-04-16T01:35:02.759Z,0
2017-04-16T01:36:16.004Z,0
2017-04-16T01:37:29.243Z,0
2017-04-16T01:38:42.511Z,0
2017-04-16T01:39:55.222Z,0
2017-04-16T01:41:08.466Z,0
2017-04-16T01:42:21.698Z,0
2017-04-16T01:43:34.904Z,0
2017-04-16T01:44:47.635Z,0
2017-04-16T01:46:00.868Z,0
2017-04-16T01:47:14.076Z,0
2017-04-16T01:48:26.845Z,0
2017-04-16T01:49:40.075Z,0
2017-04-16T01:50:53.296Z,0
2017-04-16T01:52:06.519Z,0
2017-04-16T01:53:19.779Z,0
2017-04-16T01:54:33.022Z,0
2017-04-16T01:55:46.256Z,0
2017-04-16T01:56:59.500Z,0
2017-04-16T01:58:12.389Z,0
2017-04-16T01:59:25.638Z,0
2017-04-16T02:00:39.536Z,0
2017-04-16T02:01:52.926Z,0
2017-04-16T02:03:06.861Z,0
2017-04-16T02:04:20.783Z,0
2017-04-16T02:05:34.157Z,0
2017-04-16T02:06:48.105Z,0
2017-04-16T02:08:00.977Z,0
2017-04-16T02:09:14.925Z,0
2017-04-16T02:10:28.322Z,0
2017-04-16T02:11:41.802Z,0
2017-04-16T02:12:55.717Z,0
2017-04-16T02:14:09.654Z,0
2017-04-16T02:15:23.023Z,0
2017-04-16T02:16:36.977Z,0
2017-04-16T02:17:50.356Z,0
2017-04-16T02:19:04.289Z,0
2017-04-16T02:20:17.714Z,0
2017-04-16T02:21:31.673Z,0
2017-04-16T02:22:45.647Z,0
2017-04-16T02:23:59.595Z,0
2017-04-16T02:25:13.573Z,0
2017-04-16T02:26:27.559Z,0
2017-04-16T02:27:41.570Z,0
2017-04-16T02:28:55.537Z,0
2017-04-16T02:30:08.925Z,0
2017-04-16T02:31:22.890Z,0
2017-04-16T02:32:36.857Z,0
2017-04-16T02:33:50.841Z,0
2017-04-16T02:35:04.778Z,0
2017-04-16T02:36:18.737Z,0
2017-04-16T02:37:32.876Z,0
2017-04-16T02:38:46.836Z,0
2017-04-16T02:40:00.792Z,0
2017-04-16T02:41:14.745Z,0
2017-04-16T02:42:28.140Z,0
2017-04-16T02:43:42.123Z,0
2017-04-16T02:44:56.081Z,0
2017-04-16T02:46:09.982Z,0
2017-04-16T02:47:23.907Z,0
2017-04-16T02:48:37.874Z,0
2017-04-16T02:49:51.308Z,0
2017-04-16T02:51:05.398Z,0
2017-04-16T02:52:18.789Z,0
2017-04-16T02:53:32.697Z,0
2017-04-16T02:54:46.636Z,0
2017-04-16T02:56:00.569Z,0
2017-04-16T02:57:14.004Z,0
2017-04-16T02:58:27.950Z,0
2017-04-16T02:59:41.915Z,0
2017-04-16T03:00:55.299Z,0
2017-04-16T03:02:09.263Z,0
2017-04-16T03:03:23.186Z,0
2017-04-16T03:04:37.260Z,0
2017-04-16T03:05:51.201Z,0
2017-04-16T03:07:05.155Z,0
2017-04-16T03:08:18.570Z,0
2017-04-16T03:09:32.522Z,0
2017-04-16T03:10:46.491Z,0
2017-04-16T03:11:59.848Z,0
2017-04-16T03:13:13.802Z,0
2017-04-16T03:14:27.760Z,0
2017-04-16T03:15:41.707Z,0
2017-04-16T03:16:55.659Z,0
2017-04-16T03:18:09.063Z,0
2017-04-16T03:19:23.043Z,0
2017-04-16T03:20:37.022Z,0
2017-04-16T03:21:50.433Z,0
2017-04-16T03:23:04.416Z,0
2017-04-16T03:24:18.353Z,0
2017-04-16T03:25:32.346Z,0
2017-04-16T03:26:46.313Z,0
2017-04-16T03:28:00.227Z,0
2017-04-16T03:29:14.189Z,0
2017-04-16T03:30:27.605Z,0
2017-04-16T03:31:41.536Z,0
2017-04-16T03:32:55.605Z,0
2017-04-16T03:34:09.560Z,0
2017-04-16T03:35:23.475Z,0
2017-04-16T03:36:37.451Z,0
2017-04-16T03:37:51.395Z,0
2017-04-16T03:39:05.309Z,0
2017-04-16T03:40:19.230Z,0
2017-04-16T03:41:33.189Z,0
2017-04-16T03:42:47.135Z,0
2017-04-16T03:44:01.127Z,0
2017-04-16T03:45:15.152Z,0
2017-04-16T03:46:29.116Z,0
2017-04-16T03:47:43.097Z,0
2017-04-16T03:48:56.506Z,0
2017-04-16T03:50:10.449Z,0
2017-04-16T03:51:24.412Z,0
2017-04-16T03:52:38.381Z,0
2017-04-16T03:53:52.393Z,0
2017-04-16T03:55:06.317Z,0
2017-04-16T03:56:20.251Z,0
2017-04-16T03:57:33.612Z,0
2017-04-16T03:58:47.582Z,0
2017-04-16T04:00:01.561Z,0
2017-04-16T04:01:14.955Z,0
2017-04-16T04:02:28.926Z,0
2017-04-16T04:03:42.297Z,0
2017-04-16T04:04:56.223Z,0
2017-04-16T04:06:10.169Z,0
2017-04-16T04:07:24.126Z,0
2017-04-16T04:08:38.103Z,0
2017-04-16T04:09:51.469Z,0
2017-04-16T04:11:04.878Z,0
2017-04-16T04:12:18.817Z,0
2017-04-16T04:13:32.794Z,0
2017-04-16T04:14:46.708Z,0
2017-04-16T04:16:00.658Z,0
2017-04-16T04:17:14.599Z,0
2017-04-16T04:18:28.533Z,0
2017-04-16T04:19:41.919Z,0
2017-04-16T04:20:55.868Z,0
2017-04-16T04:22:09.826Z,0
2017-04-16T04:23:23.203Z,0
2017-04-16T04:24:37.142Z,0
2017-04-16T04:25:51.127Z,0
2017-04-16T04:27:04.824Z,0
2017-04-16T04:28:22.185Z,0
2017-04-16T04:29:35.485Z,0
2017-04-16T04:30:48.713Z,0
2017-04-16T04:32:01.991Z,0
2017-04-16T04:33:15.243Z,0
2017-04-16T04:34:28.507Z,0
2017-04-16T04:35:41.766Z,0
2017-04-16T04:36:54.982Z,0
2017-04-16T04:38:08.303Z,0
2017-04-16T04:39:21.519Z,0
2017-04-16T04:40:34.246Z,0
2017-04-16T04:41:47.550Z,0
2017-04-16T04:43:00.263Z,0
2017-04-16T04:44:13.498Z,0
2017-04-16T04:45:26.760Z,0
2017-04-16T04:46:39.480Z,0
2017-04-16T04:47:52.729Z,0
2017-04-16T04:49:05.970Z,0
2017-04-16T04:50:19.165Z,0
2017-04-16T04:51:32.395Z,0
2017-04-16T04:52:45.627Z,0
2017-04-16T04:53:58.870Z,0
2017-04-16T04:55:12.147Z,0
2017-04-16T04:56:25.422Z,0
2017-04-16T04:57:38.679Z,0
2017-04-16T04:58:51.970Z,0
2017-04-16T05:00:05.217Z,0
2017-04-16T05:01:17.422Z,0
2017-04-16T05:02:30.662Z,0
2017-04-16T05:03:43.903Z,0
2017-04-16T05:04:57.144Z,0
2017-04-16T05:06:10.361Z,0
2017-04-16T05:07:23.064Z,0
2017-04-16T05:08:36.331Z,0
2017-04-16T05:09:48.019Z,0
2017-04-16T05:11:01.267Z,0
2017-04-16T05:12:14.656Z,0
2017-04-16T05:13:27.382Z,0
2017-04-16T05:14:40.658Z,0
2017-04-16T05:15:53.397Z,0
2017-04-16T05:17:06.646Z,0
2017-04-16T05:18:19.904Z,0
2017-04-16T05:19:33.144Z,0
2017-04-16T05:20:46.361Z,0
2017-04-16T05:21:59.596Z,0
2017-04-16T05:23:12.857Z,0
2017-04-16T05:24:26.066Z,0
2017-04-16T05:25:39.297Z,0
2017-04-16T05:26:52.675Z,0
2017-04-16T05:28:05.921Z,0
2017-04-16T05:29:19.193Z,0
2017-04-16T05:30:32.429Z,0
2017-04-16T05:31:45.661Z,0
2017-04-16T05:32:58.936Z,0
2017-04-16T05:34:12.173Z,0
2017-04-16T05:35:25.461Z,0
2017-04-16T05:36:38.683Z,0
2017-04-16T05:37:51.922Z,0
2017-04-16T05:39:05.146Z,0
2017-04-16T05:40:18.368Z,0
2017-04-16T05:41:31.617Z,0
2017-04-16T05:42:45.051Z,0
2017-04-16T05:43:58.293Z,0
2017-04-16T05:45:11.555Z,0
2017-04-16T05:46:24.817Z,0
2017-04-16T05:47:38.038Z,0
2017-04-16T05:48:51.304Z,0
2017-04-16T05:50:04.027Z,0
2017-04-16T05:51:17.306Z,0
2017-04-16T05:52:30.077Z,0
2017-04-16T05:53:43.315Z,0
2017-04-16T05:54:56.572Z,0
2017-04-16T05:56:09.312Z,0
2017-04-16T05:57:22.545Z,0
2017-04-16T05:58:35.351Z,0
2017-04-16T05:59:48.622Z,0
2017-04-16T06:01:01.871Z,0
2017-04-16T06:02:15.107Z,0
2017-04-16T06:03:28.366Z,0
2017-04-16T06:04:41.636Z,0
2017-04-16T06:05:54.858Z,0
2017-04-16T06:07:08.100Z,0
2017-04-16T06:08:21.327Z,0
2017-04-16T06:09:34.573Z,0
2017-04-16T06:10:47.795Z,0
2017-04-16T06:12:00.995Z,0
2017-04-16T06:13:14.225Z,0
2017-04-16T06:14:27.601Z,0
2017-04-16T06:15:40.929Z,0
2017-04-16T06:16:54.158Z,0
2017-04-16T06:18:07.408Z,0
2017-04-16T06:19:20.633Z,0
2017-04-16T06:20:33.362Z,0
2017-04-16T06:21:46.586Z,0
2017-04-16T06:22:59.829Z,0
2017-04-16T06:24:13.090Z,0
2017-04-16T06:25:25.855Z,0
2017-04-16T06:26:38.568Z,0
2017-04-16T06:27:51.796Z,0
2017-04-16T06:29:05.060Z,0
2017-04-16T06:30:18.310Z,0
2017-04-16T06:31:31.523Z,0
2017-04-16T06:32:44.425Z,0
2017-04-16T06:33:57.686Z,0
2017-04-16T06:35:10.939Z,0
2017-04-16T06:36:24.170Z,0
2017-04-16T06:37:37.433Z,0
2017-04-16T06:38:50.706Z,0
2017-04-16T06:40:03.452Z,0
2017-04-16T06:41:15.657Z,0
2017-04-16T06:42:28.882Z,0
2017-04-16T06:43:42.125Z,0
2017-04-16T06:44:55.329Z,0
2017-04-16T06:46:08.083Z,0
2017-04-16T06:47:21.336Z,0
2017-04-16T06:48:34.558Z,0
2017-04-16T06:49:47.998Z,0
2017-04-16T06:51:01.378Z,0
2017-04-16T06:52:14.586Z,0
2017-04-16T06:53:27.818Z,0
2017-04-16T06:54:41.080Z,0
2017-04-16T06:55:53.795Z,0
2017-04-16T06:57:07.058Z,0
2017-04-16T06:58:20.317Z,0
2017-04-16T06:59:33.563Z,0
2017-04-16T07:00:46.787Z,0
2017-04-16T07:01:59.994Z,0
2017-04-16T07:03:13.223Z,0
2017-04-16T07:04:25.919Z,0
2017-04-16T07:05:39.141Z,0
2017-04-16T07:06:52.590Z,0
2017-04-16T07:08:06.053Z,0
2017-04-16T07:09:19.469Z,0
2017-04-16T07:10:32.694Z,0
2017-04-16T07:11:45.961Z,0
2017-04-16T07:12:59.181Z,0
2017-04-16T07:14:12.429Z,0
2017-04-16T07:15:25.683Z,0
2017-04-16T07:16:38.398Z,0
2017-04-16T07:17:51.636Z,0
2017-04-16T07:19:04.874Z,0
2017-04-16T07:20:18.112Z,0
2017-04-16T07:21:31.334Z,0
2017-04-16T07:22:44.564Z,0
2017-04-16T07:23:58.091Z,0
2017-04-16T07:25:11.311Z,0
2017-04-16T07:26:24.537Z,0
2017-04-16T07:27:37.754Z,0
2017-04-16T07:28:50.984Z,0
2017-04-16T07:30:04.218Z,0
2017-04-16T07:31:16.918Z,0
2017-04-16T07:32:29.624Z,0
2017-04-16T07:33:42.885Z,0
2017-04-16T07:34:55.613Z,0
2017-04-16T07:36:08.863Z,0
2017-04-16T07:37:22.117Z,0
2017-04-16T07:38:34.848Z,0
2017-04-16T07:39:48.178Z,0
2017-04-16T07:41:01.626Z,0
2017-04-16T07:42:14.842Z,0
2017-04-16T07:43:28.082Z,0
2017-04-16T07:44:39.765Z,0
2017-04-16T07:45:52.959Z,0
2017-04-16T07:47:05.719Z,0
2017-04-16T07:48:18.949Z,0
2017-04-16T07:49:31.666Z,0
2017-04-16T07:50:44.946Z,0
2017-04-16T07:51:57.645Z,0
2017-04-16T07:53:10.862Z,0
2017-04-16T07:54:24.111Z,0
2017-04-16T07:55:37.472Z,0
2017-04-16T07:56:50.854Z,0
2017-04-16T07:58:04.252Z,0
2017-04-16T07:59:17.478Z,0
2017-04-16T08:00:30.206Z,0
2017-04-16T08:01:43.433Z,0
2017-04-16T08:02:56.650Z,0
2017-04-16T08:04:09.884Z,0
2017-04-16T08:05:23.108Z,0
2017-04-16T08:06:36.341Z,0
2017-04-16T08:07:49.578Z,0
2017-04-16T08:09:02.779Z,0
2017-04-16T08:10:16.041Z,0
2017-04-16T08:11:29.262Z,0
2017-04-16T08:12:42.744Z,0
2017-04-16T08:13:55.995Z,0
2017-04-16T08:15:09.247Z,0
2017-04-16T08:16:22.476Z,0
2017-04-16T08:17:35.705Z,0
2017-04-16T08:18:48.945Z,0
2017-04-16T08:20:02.199Z,0
2017-04-16T08:21:14.907Z,0
2017-04-16T08:22:28.154Z,0
2017-04-16T08:23:41.383Z,0
2017-04-16T08:24:54.105Z,0
2017-04-16T08:26:07.377Z,0
2017-04-16T08:27:20.599Z,0
2017-04-16T08:28:33.799Z,0
2017-04-16T08:29:47.125Z,0
2017-04-16T08:31:00.469Z,0
2017-04-16T08:32:13.666Z,0
2017-04-16T08:33:26.889Z,0
2017-04-16T08:34:40.109Z,0
2017-04-16T08:35:53.364Z,0
2017-04-16T08:37:05.562Z,0
2017-04-16T08:38:18.796Z,0
2017-04-16T08:39:32.027Z,0
2017-04-16T08:40:45.255Z,0
2017-04-16T08:41:58.503Z,0
2017-04-16T08:43:11.746Z,0
2017-04-16T08:44:25.004Z,0
2017-04-16T08:45:38.212Z,0
2017-04-16T08:46:51.460Z,0
2017-04-16T08:48:04.739Z,0
2017-04-16T08:49:17.966Z,0
2017-04-16T08:50:31.228Z,0
2017-04-16T08:51:44.429Z,0
2017-04-16T08:52:57.637Z,0
2017-04-16T08:54:10.841Z,0
2017-04-16T08:55:23.556Z,0
2017-04-16T08:56:36.765Z,0
2017-04-16T08:57:50.006Z,0
2017-04-16T08:59:03.261Z,0
2017-04-16T09:00:16.467Z,0
2017-04-16T09:01:29.709Z,0
2017-04-16T09:02:42.447Z,0
2017-04-16T09:03:55.951Z,0
2017-04-16T09:05:09.205Z,0
2017-04-16T09:06:22.478Z,0
2017-04-16T09:07:35.713Z,0
2017-04-16T09:08:48.934Z,0
2017-04-16T09:10:02.204Z,0
2017-04-16T09:11:15.469Z,0
2017-04-16T09:12:28.700Z,0
2017-04-16T09:13:41.413Z,0
2017-04-16T09:14:54.665Z,0
2017-04-16T09:16:07.875Z,5
2017-04-16T09:17:20.609Z,5
2017-04-16T09:18:33.865Z,5
2017-04-16T09:19:47.081Z,5
2017-04-16T09:21:00.319Z,5
2017-04-16T09:22:13.537Z,10
2017-04-16T09:23:26.748Z,10
2017-04-16T09:24:39.974Z,15
2017-04-16T09:25:53.227Z,15
2017-04-16T09:27:06.453Z,20
2017-04-16T09:28:19.729Z,20
2017-04-16T09:29:32.947Z,25
2017-04-16T09:30:46.178Z,25
2017-04-16T09:31:59.428Z,30
2017-04-16T09:33:12.640Z,40
2017-04-16T09:34:25.359Z,45
2017-04-16T09:35:38.576Z,50
2017-04-16T09:36:51.827Z,60
2017-04-16T09:38:04.554Z,60
2017-04-16T09:39:17.779Z,65
2017-04-16T09:40:31.432Z,70
2017-04-16T09:41:44.648Z,75
2017-04-16T09:42:57.863Z,80
2017-04-16T09:44:11.116Z,85
2017-04-16T09:45:24.384Z,95
2017-04-16T09:46:37.630Z,105
2017-04-16T09:47:50.851Z,115
2017-04-16T09:49:04.081Z,125
2017-04-16T09:50:17.376Z,130
2017-04-16T09:51:30.599Z,135
2017-04-16T09:52:43.835Z,145
2017-04-16T09:53:57.109Z,150
2017-04-16T09:55:10.357Z,155
2017-04-16T09:56:23.093Z,160
2017-04-16T09:57:36.336Z,160
2017-04-16T09:58:49.570Z,160
2017-04-16T10:00:02.796Z,165
2017-04-16T10:01:16.032Z,170
2017-04-16T10:02:29.239Z,180
2017-04-16T10:03:41.950Z,185
2017-04-16T10:04:55.169Z,195
2017-04-16T10:06:08.087Z,200
2017-04-16T10:07:21.324Z,210
2017-04-16T10:08:34.569Z,215
2017-04-16T10:09:47.852Z,220
2017-04-16T10:11:01.075Z,245
2017-04-16T10:12:14.317Z,265
2017-04-16T10:13:27.554Z,270
2017-04-16T10:14:40.781Z,260
2017-04-16T10:15:53.501Z,255
2017-04-16T10:17:06.753Z,270
2017-04-16T10:18:19.971Z,275
2017-04-16T10:19:33.228Z,280
2017-04-16T10:20:46.459Z,285
2017-04-16T10:21:59.823Z,295
2017-04-16T10:23:13.068Z,295
2017-04-16T10:24:26.353Z,305
2017-04-16T10:25:39.593Z,315
2017-04-16T10:26:52.837Z,330
2017-04-16T10:28:06.057Z,360
2017-04-16T10:29:19.377Z,405
2017-04-16T10:30:32.621Z,425
2017-04-16T10:31:45.841Z,460
2017-04-16T10:32:59.107Z,460
2017-04-16T10:34:11.853Z,455
2017-04-16T10:35:25.112Z,435
2017-04-16T10:36:38.313Z,395
2017-04-16T10:37:51.720Z,385
2017-04-16T10:39:04.428Z,390
2017-04-16T10:40:16.655Z,500
2017-04-16T10:41:29.913Z,545
2017-04-16T10:42:43.312Z,570
2017-04-16T10:43:56.571Z,510
2017-04-16T10:45:09.789Z,500
2017-04-16T10:46:23.064Z,470
2017-04-16T10:47:36.312Z,550
2017-04-16T10:48:49.589Z,545
2017-04-16T10:50:02.838Z,615
2017-04-16T10:51:16.248Z,660
2017-04-16T10:52:29.531Z,660
2017-04-16T10:53:42.754Z,635
2017-04-16T10:54:55.981Z,655
2017-04-16T10:56:09.244Z,680
2017-04-16T10:57:21.985Z,655
2017-04-16T10:58:35.216Z,560
2017-04-16T10:59:48.437Z,480
2017-04-16T11:01:01.650Z,485
2017-04-16T11:02:14.873Z,680
2017-04-16T11:03:28.123Z,810
2017-04-16T11:04:41.340Z,785
2017-04-16T11:05:54.619Z,525
2017-04-16T11:07:07.900Z,300
2017-04-16T11:08:21.137Z,400
2017-04-16T11:09:34.414Z,475
2017-04-16T11:10:47.675Z,480
2017-04-16T11:12:00.936Z,620
2017-04-16T11:13:13.644Z,735
2017-04-16T11:14:26.886Z,860
2017-04-16T11:15:40.164Z,925
2017-04-16T11:16:53.417Z,1025
2017-04-16T11:18:06.165Z,1015
2017-04-16T11:19:19.374Z,990
2017-04-16T11:20:32.628Z,1015
2017-04-16T11:21:45.888Z,1085
2017-04-16T11:22:59.153Z,1135
2017-04-16T11:24:11.889Z,1225
2017-04-16T11:25:25.190Z,1330
2017-04-16T11:26:38.464Z,1405
2017-04-16T11:27:51.668Z,1680
2017-04-16T11:29:04.920Z,1585
2017-04-16T11:30:18.167Z,1770
2017-04-16T11:31:30.892Z,1630
2017-04-16T11:32:44.134Z,1830
2017-04-16T11:33:57.385Z,2265
2017-04-16T11:35:10.648Z,1675
2017-04-16T11:36:23.890Z,990
2017-04-16T11:37:37.262Z,765
2017-04-16T11:38:50.493Z,775
2017-04-16T11:40:03.769Z,930
2017-04-16T11:41:17.035Z,1005
2017-04-16T11:42:30.296Z,1300
2017-04-16T11:43:43.543Z,1260
2017-04-16T11:44:56.784Z,1215
2017-04-16T11:46:10.009Z,1015
2017-04-16T11:47:23.253Z,1000
2017-04-16T11:48:36.021Z,910
2017-04-16T11:49:49.259Z,1210
2017-04-16T11:51:02.496Z,1530
2017-04-16T11:52:15.205Z,1745
2017-04-16T11:53:28.554Z,1645
2017-04-16T11:54:41.887Z,1360
2017-04-16T11:55:55.114Z,1615
2017-04-16T11:57:08.356Z,1890
2017-04-16T11:58:21.609Z,1800
2017-04-16T11:59:34.820Z,2120
2017-04-16T12:00:47.547Z,1910
2017-04-16T12:02:00.253Z,2265
2017-04-16T12:03:13.520Z,2240
2017-04-16T12:04:26.734Z,2310
2017-04-16T12:05:39.986Z,2390
2017-04-16T12:06:53.252Z,2505
2017-04-16T12:08:06.489Z,2335
2017-04-16T12:09:19.705Z,2170
2017-04-16T12:10:32.984Z,1005
2017-04-16T12:11:45.675Z,845
2017-04-16T12:12:58.895Z,840
2017-04-16T12:14:12.118Z,995
2017-04-16T12:15:25.349Z,1490
2017-04-16T12:16:38.623Z,1795
2017-04-16T12:17:51.843Z,1795
2017-04-16T12:19:05.088Z,2170
2017-04-16T12:20:18.322Z,2265
2017-04-16T12:21:31.579Z,1780
2017-04-16T12:22:44.797Z,2165
2017-04-16T12:23:58.063Z,2260
2017-04-16T12:25:10.248Z,2250
2017-04-16T12:26:23.509Z,2045
2017-04-16T12:27:36.748Z,2315
2017-04-16T12:28:49.992Z,2260
2017-04-16T12:30:03.251Z,2330
2017-04-16T12:31:15.996Z,2335
2017-04-16T12:32:29.237Z,2480
2017-04-16T12:33:42.484Z,2325
2017-04-16T12:34:55.716Z,2370
2017-04-16T12:36:08.996Z,2505
2017-04-16T12:37:22.228Z,2295
2017-04-16T12:38:35.458Z,2430
2017-04-16T12:39:48.696Z,2280
2017-04-16T12:41:01.937Z,2230
2017-04-16T12:42:15.171Z,2415
2017-04-16T12:43:28.439Z,2170
2017-04-16T12:44:41.695Z,2095
2017-04-16T12:45:54.943Z,2415
2017-04-16T12:47:08.182Z,2530
2017-04-16T12:48:21.425Z,2655
2017-04-16T12:49:34.182Z,2930
2017-04-16T12:50:47.430Z,2680
2017-04-16T12:52:00.697Z,2695
2017-04-16T12:53:13.967Z,2405
2017-04-16T12:54:27.182Z,2425
2017-04-16T12:55:40.405Z,2335
2017-04-16T12:56:53.651Z,2490
2017-04-16T12:58:06.884Z,2530
2017-04-16T12:59:20.154Z,2710
2017-04-16T13:00:33.381Z,2815
2017-04-16T13:01:46.597Z,2530
2017-04-16T13:02:59.841Z,2755
2017-04-16T13:04:12.555Z,2795
2017-04-16T13:05:25.849Z,2535
2017-04-16T13:06:39.127Z,2575
2017-04-16T13:07:52.349Z,2035
2017-04-16T13:09:05.584Z,2355
2017-04-16T13:10:18.854Z,2695
2017-04-16T13:11:31.617Z,2770
2017-04-16T13:12:44.892Z,2665
2017-04-16T13:13:58.125Z,2680
2017-04-16T13:15:10.861Z,2825
2017-04-16T13:16:24.132Z,3030
2017-04-16T13:17:37.375Z,1840
2017-04-16T13:18:50.624Z,3170
2017-04-16T13:20:03.869Z,3075
2017-04-16T13:21:17.161Z,2955
2017-04-16T13:22:30.385Z,3415
2017-04-16T13:23:43.109Z,3305
2017-04-16T13:24:56.349Z,3255
2017-04-16T13:26:09.614Z,2115
2017-04-16T13:27:23.006Z,1410
2017-04-16T13:28:36.310Z,1395
2017-04-16T13:29:49.030Z,1700
2017-04-16T13:31:02.276Z,1720
2017-04-16T13:32:15.045Z,3375
2017-04-16T13:33:28.258Z,2650
2017-04-16T13:34:41.511Z,2105
2017-04-16T13:35:54.747Z,1665
2017-04-16T13:37:07.978Z,2055
2017-04-16T13:38:21.247Z,2200
2017-04-16T13:39:34.497Z,2475
2017-04-16T13:40:46.742Z,3175
2017-04-16T13:41:59.973Z,2700
2017-04-16T13:43:13.333Z,2690
2017-04-16T13:44:26.568Z,2415
2017-04-16T13:45:39.784Z,2250
2017-04-16T13:46:53.047Z,1975
2017-04-16T13:48:05.777Z,1890
2017-04-16T13:49:19.006Z,2140
2017-04-16T13:50:32.243Z,2405
2017-04-16T13:51:45.495Z,3290
2017-04-16T13:52:58.774Z,3350
2017-04-16T13:54:12.000Z,3510
2017-04-16T13:55:25.200Z,3460
2017-04-16T13:56:38.505Z,3430
2017-04-16T13:57:51.994Z,3445
2017-04-16T13:59:05.347Z,2770
2017-04-16T14:00:18.621Z,2835
2017-04-16T14:01:31.928Z,3380
2017-04-16T14:02:45.174Z,3340
2017-04-16T14:03:58.472Z,3360
2017-04-16T14:05:11.698Z,3120
2017-04-16T14:06:24.924Z,3090
2017-04-16T14:07:38.163Z,3165
2017-04-16T14:08:51.433Z,2510
2017-04-16T14:10:04.721Z,2865
2017-04-16T14:11:17.467Z,2945
2017-04-16T14:12:30.740Z,3190
2017-04-16T14:13:43.524Z,3275
2017-04-16T14:14:56.777Z,3495
2017-04-16T14:16:10.052Z,3425
2017-04-16T14:17:23.286Z,3080
2017-04-16T14:18:36.558Z,2190
2017-04-16T14:19:49.839Z,2660
2017-04-16T14:21:03.084Z,2280
2017-04-16T14:22:15.829Z,2625
2017-04-16T14:23:29.072Z,2580
2017-04-16T14:24:42.299Z,2875
2017-04-16T14:25:55.585Z,2125
2017-04-16T14:27:08.845Z,1530
2017-04-16T14:28:22.174Z,1795
2017-04-16T14:29:34.965Z,2760
2017-04-16T14:30:48.203Z,2520
2017-04-16T14:32:01.474Z,3085
2017-04-16T14:33:14.725Z,3150
2017-04-16T14:34:27.969Z,3245
2017-04-16T14:35:41.215Z,3235
2017-04-16T14:36:54.444Z,2720
2017-04-16T14:38:07.211Z,2055
2017-04-16T14:39:20.493Z,2910
2017-04-16T14:40:33.741Z,3665
2017-04-16T14:41:46.483Z,3705
2017-04-16T14:42:59.809Z,3455
2017-04-16T14:44:13.052Z,3420
2017-04-16T14:45:26.303Z,3415
2017-04-16T14:46:39.574Z,3645
2017-04-16T14:47:52.858Z,3705
2017-04-16T14:49:06.132Z,3465
2017-04-16T14:50:19.404Z,3595
2017-04-16T14:51:31.635Z,3395
2017-04-16T14:52:44.929Z,3290
2017-04-16T14:53:58.200Z,3075
2017-04-16T14:55:11.481Z,3185
2017-04-16T14:56:24.710Z,3185
2017-04-16T14:57:37.940Z,3090
2017-04-16T14:58:51.178Z,3205
2017-04-16T15:00:04.428Z,3010
2017-04-16T15:01:17.650Z,3290
2017-04-16T15:02:30.930Z,3300
2017-04-16T15:03:44.198Z,3135
2017-04-16T15:04:57.418Z,3305
2017-04-16T15:06:10.665Z,3165
2017-04-16T15:07:23.916Z,2950
2017-04-16T15:08:36.644Z,2950
2017-04-16T15:09:49.859Z,3050
2017-04-16T15:11:03.102Z,3245
2017-04-16T15:12:16.011Z,3610
2017-04-16T15:13:28.757Z,3630
2017-04-16T15:14:41.984Z,3440
2017-04-16T15:15:55.427Z,3610
2017-04-16T15:17:08.646Z,3165
2017-04-16T15:18:21.889Z,3095
2017-04-16T15:19:35.130Z,3670
2017-04-16T15:20:48.429Z,3380
2017-04-16T15:22:01.639Z,2975
2017-04-16T15:23:14.907Z,2365
2017-04-16T15:24:28.164Z,2755
2017-04-16T15:25:41.413Z,3140
2017-04-16T15:26:54.680Z,3000
2017-04-16T15:28:07.385Z,2945
2017-04-16T15:29:20.128Z,2785
2017-04-16T15:30:33.337Z,2555
2017-04-16T15:31:46.616Z,2825
2017-04-16T15:32:59.904Z,3075
2017-04-16T15:34:12.690Z,3130
2017-04-16T15:35:25.951Z,2780
2017-04-16T15:36:39.163Z,3025
2017-04-16T15:37:52.459Z,3665
2017-04-16T15:39:05.769Z,3385
2017-04-16T15:40:19.041Z,3400
2017-04-16T15:41:31.770Z,3230
2017-04-16T15:42:45.029Z,3260
2017-04-16T15:43:58.299Z,3205
2017-04-16T15:45:11.582Z,3255
2017-04-16T15:46:24.872Z,3610
2017-04-16T15:47:38.152Z,3820
2017-04-16T15:48:51.409Z,3710
2017-04-16T15:50:04.639Z,3615
2017-04-16T15:51:17.892Z,3565
2017-04-16T15:52:30.641Z,3245
2017-04-16T15:53:43.344Z,3200
2017-04-16T15:54:56.608Z,3140
2017-04-16T15:56:09.847Z,3285
2017-04-16T15:57:23.069Z,3615
2017-04-16T15:58:36.332Z,3650
2017-04-16T15:59:49.053Z,3755
2017-04-16T16:01:02.321Z,3865
2017-04-16T16:02:15.570Z,3295
2017-04-16T16:03:28.856Z,3315
2017-04-16T16:04:42.370Z,2980
2017-04-16T16:05:55.626Z,2585
2017-04-16T16:07:08.844Z,2615
2017-04-16T16:08:22.095Z,2895
2017-04-16T16:09:35.296Z,2930
2017-04-16T16:10:48.546Z,2865
2017-04-16T16:12:01.803Z,2895
2017-04-16T16:13:14.610Z,2800
2017-04-16T16:14:27.863Z,2745
2017-04-16T16:15:40.590Z,2750
2017-04-16T16:16:53.839Z,3120
2017-04-16T16:18:07.220Z,3160
2017-04-16T16:19:19.935Z,2965
2017-04-16T16:20:33.181Z,3045
2017-04-16T16:21:46.431Z,3075
2017-04-16T16:22:59.682Z,3090
2017-04-16T16:24:12.959Z,2820
2017-04-16T16:25:26.197Z,2875
2017-04-16T16:26:38.928Z,3165
2017-04-16T16:27:52.173Z,3200
2017-04-16T16:29:05.407Z,3195
2017-04-16T16:30:18.662Z,3115
2017-04-16T16:31:31.420Z,3185
2017-04-16T16:32:44.662Z,3015
2017-04-16T16:33:57.905Z,3005
2017-04-16T16:35:11.162Z,2885
2017-04-16T16:36:24.399Z,3120
2017-04-16T16:37:37.136Z,3020
2017-04-16T16:38:49.849Z,3030
2017-04-16T16:40:03.100Z,2880
2017-04-16T16:41:15.845Z,2805
2017-04-16T16:42:29.122Z,2700
2017-04-16T16:43:42.356Z,2515
2017-04-16T16:44:55.612Z,2805
2017-04-16T16:46:08.848Z,2895
2017-04-16T16:47:22.077Z,2840
2017-04-16T16:48:35.354Z,3040
2017-04-16T16:49:48.702Z,2980
2017-04-16T16:51:01.986Z,2990
2017-04-16T16:52:15.227Z,2720
2017-04-16T16:53:27.976Z,2710
2017-04-16T16:54:41.239Z,2685
2017-04-16T16:55:54.550Z,2885
2017-04-16T16:57:07.775Z,2765
2017-04-16T16:58:21.042Z,2825
2017-04-16T16:59:33.801Z,2610
2017-04-16T17:00:47.048Z,2800
2017-04-16T17:02:00.292Z,2860
2017-04-16T17:03:13.525Z,2965
2017-04-16T17:04:26.753Z,2885
2017-04-16T17:05:39.994Z,2860
2017-04-16T17:06:53.208Z,2725
2017-04-16T17:08:06.449Z,2770
2017-04-16T17:09:19.726Z,2880
2017-04-16T17:10:32.455Z,3015
2017-04-16T17:11:45.223Z,3055
2017-04-16T17:12:57.418Z,2945
2017-04-16T17:14:10.648Z,2700
2017-04-16T17:15:23.903Z,2450
2017-04-16T17:16:37.133Z,2120